sensor_id;sensor_type;location;lat;lon;timestamp;pressure;altitude;pressure_sealevel;temperature;humidity
60087;BME280;45960;53.630;55.972;2023-10-19T00:00:46;100288.53;;;5.86;58.35
60087;BME280;45960;53.630;55.972;2023-10-19T00:01:51;100286.94;;;5.81;58.44
60087;BME280;45960;53.630;55.972;2023-10-19T00:02:52;100289.69;;;5.80;58.51
60087;BME280;45960;53.630;55.972;2023-10-19T00:03:54;100286.94;;;5.81;58.36
60087;BME280;45960;53.630;55.972;2023-10-19T00:04:59;100289.78;;;5.77;58.47
60087;BME280;45960;53.630;55.972;2023-10-19T00:06:00;100293.53;;;5.73;58.97
60087;BME280;45960;53.630;55.972;2023-10-19T00:07:02;100287.91;;;5.60;60.11
60087;BME280;45960;53.630;55.972;2023-10-19T00:08:07;100288.41;;;5.49;61.03
60087;BME280;45960;53.630;55.972;2023-10-19T00:09:14;100286.00;;;5.43;61.47
60087;BME280;45960;53.630;55.972;2023-10-19T00:10:16;100293.56;;;5.32;62.52
60087;BME280;45960;53.630;55.972;2023-10-19T00:11:19;100281.94;;;5.15;63.47
60087;BME280;45960;53.630;55.972;2023-10-19T00:12:24;100285.88;;;5.05;64.04
60087;BME280;45960;53.630;55.972;2023-10-19T00:13:25;100286.16;;;4.99;64.91
60087;BME280;45960;53.630;55.972;2023-10-19T00:14:29;100288.63;;;4.82;66.29
60087;BME280;45960;53.630;55.972;2023-10-19T00:15:33;100290.50;;;4.58;67.78
60087;BME280;45960;53.630;55.972;2023-10-19T00:16:35;100300.81;;;4.42;68.61
60087;BME280;45960;53.630;55.972;2023-10-19T00:17:37;100313.34;;;4.37;69.33
60087;BME280;45960;53.630;55.972;2023-10-19T00:18:39;100296.75;;;4.33;69.75
60087;BME280;45960;53.630;55.972;2023-10-19T00:19:43;100292.31;;;4.34;70.32
60087;BME280;45960;53.630;55.972;2023-10-19T00:20:58;100283.59;;;4.32;70.38
60087;BME280;45960;53.630;55.972;2023-10-19T00:22:19;100283.47;;;4.35;70.59
60087;BME280;45960;53.630;55.972;2023-10-19T00:23:23;100285.31;;;4.33;70.84
60087;BME280;45960;53.630;55.972;2023-10-19T00:24:33;100287.03;;;4.34;71.15
60087;BME280;45960;53.630;55.972;2023-10-19T00:25:34;100280.16;;;4.30;71.41
60087;BME280;45960;53.630;55.972;2023-10-19T00:26:35;100283.03;;;4.23;71.66
60087;BME280;45960;53.630;55.972;2023-10-19T00:27:36;100291.75;;;4.25;71.76
60087;BME280;45960;53.630;55.972;2023-10-19T00:28:38;100285.81;;;4.20;71.75
60087;BME280;45960;53.630;55.972;2023-10-19T00:29:39;100289.44;;;4.18;72.00
60087;BME280;45960;53.630;55.972;2023-10-19T00:30:41;100286.72;;;4.19;72.25
60087;BME280;45960;53.630;55.972;2023-10-19T00:31:44;100275.44;;;4.14;72.22
60087;BME280;45960;53.630;55.972;2023-10-19T00:32:45;100289.09;;;4.25;72.23
60087;BME280;45960;53.630;55.972;2023-10-19T00:33:47;100291.59;;;4.30;72.47
60087;BME280;45960;53.630;55.972;2023-10-19T00:34:48;100280.84;;;4.35;72.47
60087;BME280;45960;53.630;55.972;2023-10-19T00:35:56;100291.97;;;4.43;72.34
60087;BME280;45960;53.630;55.972;2023-10-19T00:37:10;100289.34;;;4.43;72.24
60087;BME280;45960;53.630;55.972;2023-10-19T00:38:13;100286.69;;;4.43;72.51
60087;BME280;45960;53.630;55.972;2023-10-19T00:39:20;100283.22;;;4.41;72.30
60087;BME280;45960;53.630;55.972;2023-10-19T00:40:22;100282.50;;;4.37;72.30
60087;BME280;45960;53.630;55.972;2023-10-19T00:41:34;100286.81;;;4.40;72.43
60087;BME280;45960;53.630;55.972;2023-10-19T00:42:35;100281.72;;;4.34;72.52
60087;BME280;45960;53.630;55.972;2023-10-19T00:43:43;100283.59;;;4.32;72.65
60087;BME280;45960;53.630;55.972;2023-10-19T00:44:44;100285.28;;;4.34;72.70
60087;BME280;45960;53.630;55.972;2023-10-19T00:45:50;100285.06;;;4.39;72.55
60087;BME280;45960;53.630;55.972;2023-10-19T00:46:53;100280.72;;;4.38;72.65
60087;BME280;45960;53.630;55.972;2023-10-19T00:48:04;100292.97;;;4.40;72.78
60087;BME280;45960;53.630;55.972;2023-10-19T00:49:10;100292.31;;;4.34;72.74
60087;BME280;45960;53.630;55.972;2023-10-19T00:50:13;100294.09;;;4.33;72.99
60087;BME280;45960;53.630;55.972;2023-10-19T00:51:25;100295.78;;;4.36;72.74
60087;BME280;45960;53.630;55.972;2023-10-19T00:52:29;100297.47;;;4.37;73.00
60087;BME280;45960;53.630;55.972;2023-10-19T00:53:35;100294.66;;;4.41;73.07
60087;BME280;45960;53.630;55.972;2023-10-19T00:54:39;100295.41;;;4.45;72.69
60087;BME280;45960;53.630;55.972;2023-10-19T00:55:51;100297.91;;;4.48;72.77
60087;BME280;45960;53.630;55.972;2023-10-19T00:56:53;100298.13;;;4.43;72.82
60087;BME280;45960;53.630;55.972;2023-10-19T00:57:57;100301.63;;;4.44;72.77
60087;BME280;45960;53.630;55.972;2023-10-19T00:58:58;100279.03;;;4.35;72.87
60087;BME280;45960;53.630;55.972;2023-10-19T01:00:21;100289.75;;;4.54;72.57
60087;BME280;45960;53.630;55.972;2023-10-19T01:01:33;100287.88;;;4.56;72.87
60087;BME280;45960;53.630;55.972;2023-10-19T01:02:40;100211.09;;;4.15;72.59
60087;BME280;45960;53.630;55.972;2023-10-19T01:03:47;100280.84;;;4.57;72.20
60087;BME280;45960;53.630;55.972;2023-10-19T01:04:54;100288.81;;;4.55;72.31
60087;BME280;45960;53.630;55.972;2023-10-19T01:06:06;100282.97;;;4.47;72.34
60087;BME280;45960;53.630;55.972;2023-10-19T01:07:10;100276.09;;;4.43;72.42
60087;BME280;45960;53.630;55.972;2023-10-19T01:08:23;100286.69;;;4.43;72.30
60087;BME280;45960;53.630;55.972;2023-10-19T01:09:25;100290.34;;;4.39;72.27
60087;BME280;45960;53.630;55.972;2023-10-19T01:10:30;100300.25;;;4.34;72.43
60087;BME280;45960;53.630;55.972;2023-10-19T01:11:34;100305.63;;;4.32;72.51
60087;BME280;45960;53.630;55.972;2023-10-19T01:12:37;100309.28;;;4.28;72.52
60087;BME280;45960;53.630;55.972;2023-10-19T01:13:42;100315.56;;;4.25;72.62
60087;BME280;45960;53.630;55.972;2023-10-19T01:15:03;100292.34;;;4.10;72.81
60087;BME280;45960;53.630;55.972;2023-10-19T01:16:11;100261.28;;;3.93;72.88
60087;BME280;45960;53.630;55.972;2023-10-19T01:17:16;100301.88;;;4.14;73.01
60087;BME280;45960;53.630;55.972;2023-10-19T01:18:19;100310.88;;;4.10;72.99
60087;BME280;45960;53.630;55.972;2023-10-19T01:19:20;100302.00;;;4.11;73.14
60087;BME280;45960;53.630;55.972;2023-10-19T01:20:23;100305.69;;;4.07;73.27
60087;BME280;45960;53.630;55.972;2023-10-19T01:21:30;100298.78;;;4.03;73.20
60087;BME280;45960;53.630;55.972;2023-10-19T01:22:55;100319.81;;;4.06;72.90
60087;BME280;45960;53.630;55.972;2023-10-19T01:24:42;100319.81;;;4.06;73.01
60087;BME280;45960;53.630;55.972;2023-10-19T01:25:50;100305.59;;;4.10;72.78
60087;BME280;45960;53.630;55.972;2023-10-19T01:27:11;100307.28;;;4.11;72.72
60087;BME280;45960;53.630;55.972;2023-10-19T01:28:14;100313.34;;;4.15;72.81
60087;BME280;45960;53.630;55.972;2023-10-19T01:29:18;100296.59;;;4.14;72.64
60087;BME280;45960;53.630;55.972;2023-10-19T01:30:27;100312.38;;;4.17;72.87
60087;BME280;45960;53.630;55.972;2023-10-19T01:31:28;100320.22;;;4.19;72.98
60087;BME280;45960;53.630;55.972;2023-10-19T01:32:29;100302.00;;;4.11;72.75
60087;BME280;45960;53.630;55.972;2023-10-19T01:33:30;100319.25;;;4.21;72.56
60087;BME280;45960;53.630;55.972;2023-10-19T01:34:32;100300.16;;;4.13;72.71
60087;BME280;45960;53.630;55.972;2023-10-19T01:35:34;100315.69;;;4.22;72.61
60087;BME280;45960;53.630;55.972;2023-10-19T01:36:53;100318.88;;;4.31;72.55
60087;BME280;45960;53.630;55.972;2023-10-19T01:37:58;100309.16;;;4.31;72.46
60087;BME280;45960;53.630;55.972;2023-10-19T01:39:00;100315.91;;;4.40;72.01
60087;BME280;45960;53.630;55.972;2023-10-19T01:40:02;100320.38;;;4.38;72.23
60087;BME280;45960;53.630;55.972;2023-10-19T01:41:05;100321.53;;;4.31;72.18
60087;BME280;45960;53.630;55.972;2023-10-19T01:42:13;100326.94;;;4.28;72.50
60087;BME280;45960;53.630;55.972;2023-10-19T01:43:15;100291.59;;;4.30;72.32
60087;BME280;45960;53.630;55.972;2023-10-19T01:44:21;100316.19;;;4.32;72.40
60087;BME280;45960;53.630;55.972;2023-10-19T01:45:22;100321.28;;;4.37;72.40
60087;BME280;45960;53.630;55.972;2023-10-19T01:46:23;100311.53;;;4.39;72.17
60087;BME280;45960;53.630;55.972;2023-10-19T01:47:34;100313.88;;;4.46;71.88
60087;BME280;45960;53.630;55.972;2023-10-19T01:48:36;100320.63;;;4.54;71.78
60087;BME280;45960;53.630;55.972;2023-10-19T01:49:38;100304.94;;;4.49;71.58
60087;BME280;45960;53.630;55.972;2023-10-19T01:50:40;100322.84;;;4.42;71.81
60087;BME280;45960;53.630;55.972;2023-10-19T01:51:42;100329.91;;;4.42;72.20
60087;BME280;45960;53.630;55.972;2023-10-19T01:52:45;100325.44;;;4.44;72.15
60087;BME280;45960;53.630;55.972;2023-10-19T01:53:46;100328.88;;;4.46;72.15
60087;BME280;45960;53.630;55.972;2023-10-19T01:54:48;100325.91;;;4.54;71.85
60087;BME280;45960;53.630;55.972;2023-10-19T01:55:48;100317.38;;;4.47;71.78
60087;BME280;45960;53.630;55.972;2023-10-19T01:56:58;100324.94;;;4.56;71.75
60087;BME280;45960;53.630;55.972;2023-10-19T01:57:59;100335.31;;;4.62;71.71
60087;BME280;45960;53.630;55.972;2023-10-19T01:59:00;100333.38;;;4.66;71.40
60087;BME280;45960;53.630;55.972;2023-10-19T02:00:01;100320.75;;;4.72;71.26
60087;BME280;45960;53.630;55.972;2023-10-19T02:01:14;100333.88;;;4.76;71.15
60087;BME280;45960;53.630;55.972;2023-10-19T02:02:16;100329.50;;;4.75;71.03
60087;BME280;45960;53.630;55.972;2023-10-19T02:03:18;100345.50;;;4.71;70.82
60087;BME280;45960;53.630;55.972;2023-10-19T02:04:21;100340.34;;;4.68;70.86
60087;BME280;45960;53.630;55.972;2023-10-19T02:05:22;100341.94;;;4.72;70.80
60087;BME280;45960;53.630;55.972;2023-10-19T02:06:27;100343.69;;;4.74;70.71
60087;BME280;45960;53.630;55.972;2023-10-19T02:07:31;100343.91;;;4.67;70.83
60087;BME280;45960;53.630;55.972;2023-10-19T02:08:33;100337.00;;;4.63;71.01
60087;BME280;45960;53.630;55.972;2023-10-19T02:09:39;100336.63;;;4.72;71.14
60087;BME280;45960;53.630;55.972;2023-10-19T02:10:40;100335.66;;;4.75;70.95
60087;BME280;45960;53.630;55.972;2023-10-19T02:11:46;100335.66;;;4.75;71.02
60087;BME280;45960;53.630;55.972;2023-10-19T02:12:47;100342.78;;;4.73;70.66
60087;BME280;45960;53.630;55.972;2023-10-19T02:13:51;100339.38;;;4.71;70.42
60087;BME280;45960;53.630;55.972;2023-10-19T02:14:53;100346.19;;;4.77;70.45
60087;BME280;45960;53.630;55.972;2023-10-19T02:15:54;100344.22;;;4.82;70.42
60087;BME280;45960;53.630;55.972;2023-10-19T02:16:56;100349.41;;;4.85;70.35
60087;BME280;45960;53.630;55.972;2023-10-19T02:17:58;100361.56;;;4.89;70.22
60087;BME280;45960;53.630;55.972;2023-10-19T02:19:02;100358.66;;;4.95;70.07
60087;BME280;45960;53.630;55.972;2023-10-19T02:20:23;100356.81;;;4.97;69.98
60087;BME280;45960;53.630;55.972;2023-10-19T02:21:25;100359.66;;;4.92;70.19
60087;BME280;45960;53.630;55.972;2023-10-19T02:22:33;100367.69;;;4.91;69.80
60087;BME280;45960;53.630;55.972;2023-10-19T02:23:34;100359.72;;;4.91;69.57
60087;BME280;45960;53.630;55.972;2023-10-19T02:24:36;100369.50;;;4.89;69.16
60087;BME280;45960;53.630;55.972;2023-10-19T02:25:36;100369.63;;;4.86;69.14
60087;BME280;45960;53.630;55.972;2023-10-19T02:26:38;100360.22;;;4.79;68.73
60087;BME280;45960;53.630;55.972;2023-10-19T02:27:39;100362.84;;;4.79;68.57
60087;BME280;45960;53.630;55.972;2023-10-19T02:28:40;100367.25;;;4.80;68.54
60087;BME280;45960;53.630;55.972;2023-10-19T02:29:44;100364.72;;;4.77;68.13
60087;BME280;45960;53.630;55.972;2023-10-19T02:30:47;100362.84;;;4.79;68.33
60087;BME280;45960;53.630;55.972;2023-10-19T02:31:48;100364.22;;;4.89;68.44
60087;BME280;45960;53.630;55.972;2023-10-19T02:32:50;100364.81;;;4.96;68.07
60087;BME280;45960;53.630;55.972;2023-10-19T02:33:52;100355.25;;;4.93;67.91
60087;BME280;45960;53.630;55.972;2023-10-19T02:34:59;100365.59;;;4.99;67.72
60087;BME280;45960;53.630;55.972;2023-10-19T02:36:02;100362.38;;;4.91;67.55
60087;BME280;45960;53.630;55.972;2023-10-19T02:37:04;100370.44;;;4.88;67.31
60087;BME280;45960;53.630;55.972;2023-10-19T02:38:05;100370.88;;;4.77;67.10
60087;BME280;45960;53.630;55.972;2023-10-19T02:39:08;100338.84;;;4.61;67.23
60087;BME280;45960;53.630;55.972;2023-10-19T02:40:10;100377.03;;;4.78;67.39
60087;BME280;45960;53.630;55.972;2023-10-19T02:41:20;100371.03;;;4.72;67.33
60087;BME280;45960;53.630;55.972;2023-10-19T02:42:21;100358.66;;;4.73;67.13
60087;BME280;45960;53.630;55.972;2023-10-19T02:43:23;100373.44;;;4.79;67.03
60087;BME280;45960;53.630;55.972;2023-10-19T02:44:24;100371.59;;;4.81;67.02
60087;BME280;45960;53.630;55.972;2023-10-19T02:45:31;100379.66;;;4.78;66.69
60087;BME280;45960;53.630;55.972;2023-10-19T02:46:32;100373.22;;;4.85;66.87
60087;BME280;45960;53.630;55.972;2023-10-19T02:47:33;100373.22;;;4.85;66.73
60087;BME280;45960;53.630;55.972;2023-10-19T02:48:34;100364.59;;;4.80;66.81
60087;BME280;45960;53.630;55.972;2023-10-19T02:49:35;100378.84;;;4.76;66.46
60087;BME280;45960;53.630;55.972;2023-10-19T02:50:41;100383.25;;;4.77;66.51
60087;BME280;45960;53.630;55.972;2023-10-19T02:51:42;100370.63;;;4.83;66.54
60087;BME280;45960;53.630;55.972;2023-10-19T02:52:47;100373.22;;;4.85;66.33
60087;BME280;45960;53.630;55.972;2023-10-19T02:53:47;100367.94;;;4.85;66.00
60087;BME280;45960;53.630;55.972;2023-10-19T02:54:48;100372.16;;;4.89;65.89
60087;BME280;45960;53.630;55.972;2023-10-19T02:55:49;100365.84;;;4.93;65.99
60087;BME280;45960;53.630;55.972;2023-10-19T02:56:53;100362.38;;;4.91;65.75
60087;BME280;45960;53.630;55.972;2023-10-19T02:57:57;100371.22;;;4.90;65.53
60087;BME280;45960;53.630;55.972;2023-10-19T02:58:59;100366.00;;;4.88;65.55
60087;BME280;45960;53.630;55.972;2023-10-19T03:00:10;100365.28;;;4.85;65.55
60087;BME280;45960;53.630;55.972;2023-10-19T03:01:16;100369.63;;;4.86;65.57
60087;BME280;45960;53.630;55.972;2023-10-19T03:02:23;100373.94;;;4.88;65.40
60087;BME280;45960;53.630;55.972;2023-10-19T03:03:26;100381.94;;;4.87;65.09
60087;BME280;45960;53.630;55.972;2023-10-19T03:04:27;100371.47;;;4.84;65.08
60087;BME280;45960;53.630;55.972;2023-10-19T03:05:31;100381.22;;;4.83;64.98
60087;BME280;45960;53.630;55.972;2023-10-19T03:06:35;100373.09;;;4.88;64.70
60087;BME280;45960;53.630;55.972;2023-10-19T03:07:36;100380.09;;;4.89;64.51
60087;BME280;45960;53.630;55.972;2023-10-19T03:08:39;100380.97;;;4.89;64.60
60087;BME280;45960;53.630;55.972;2023-10-19T03:09:40;100380.53;;;4.78;64.15
60087;BME280;45960;53.630;55.972;2023-10-19T03:10:49;100390.22;;;4.79;64.65
60087;BME280;45960;53.630;55.972;2023-10-19T03:12:05;100382.56;;;4.71;64.65
60087;BME280;45960;53.630;55.972;2023-10-19T03:13:11;100382.31;;;4.78;64.64
60087;BME280;45960;53.630;55.972;2023-10-19T03:14:15;100378.97;;;4.72;64.49
60087;BME280;45960;53.630;55.972;2023-10-19T03:15:17;100386.03;;;4.74;64.54
60087;BME280;45960;53.630;55.972;2023-10-19T03:16:22;100377.28;;;4.71;64.51
60087;BME280;45960;53.630;55.972;2023-10-19T03:17:24;100390.00;;;4.84;64.27
60087;BME280;45960;53.630;55.972;2023-10-19T03:18:27;100391.50;;;4.91;64.37
60087;BME280;45960;53.630;55.972;2023-10-19T03:19:29;100386.38;;;4.86;64.07
60087;BME280;45960;53.630;55.972;2023-10-19T03:20:30;100394.28;;;4.88;63.90
60087;BME280;45960;53.630;55.972;2023-10-19T03:21:35;100389.03;;;4.86;63.84
60087;BME280;45960;53.630;55.972;2023-10-19T03:22:45;100384.66;;;4.85;63.72
60087;BME280;45960;53.630;55.972;2023-10-19T03:23:46;100387.09;;;4.90;63.67
60087;BME280;45960;53.630;55.972;2023-10-19T03:24:48;100385.91;;;4.99;63.83
60087;BME280;45960;53.630;55.972;2023-10-19T03:25:59;100388.34;;;5.03;63.40
60087;BME280;45960;53.630;55.972;2023-10-19T03:26:59;100384.66;;;5.07;63.12
60087;BME280;45960;53.630;55.972;2023-10-19T03:28:00;100387.78;;;5.17;63.29
60087;BME280;45960;53.630;55.972;2023-10-19T03:29:14;100398.88;;;5.27;62.87
60087;BME280;45960;53.630;55.972;2023-10-19T03:30:17;100405.59;;;5.35;62.69
60087;BME280;45960;53.630;55.972;2023-10-19T03:31:18;100406.16;;;5.42;62.61
60087;BME280;45960;53.630;55.972;2023-10-19T03:32:22;100411.06;;;5.51;62.15
60087;BME280;45960;53.630;55.972;2023-10-19T03:33:27;100401.41;;;5.50;61.83
60087;BME280;45960;53.630;55.972;2023-10-19T03:34:29;100390.13;;;5.45;61.56
60087;BME280;45960;53.630;55.972;2023-10-19T03:35:33;100401.94;;;5.58;61.54
60087;BME280;45960;53.630;55.972;2023-10-19T03:36:35;100408.84;;;5.63;61.36
60087;BME280;45960;53.630;55.972;2023-10-19T03:37:37;100404.19;;;5.68;61.25
60087;BME280;45960;53.630;55.972;2023-10-19T03:38:39;100409.91;;;5.79;61.07
60087;BME280;45960;53.630;55.972;2023-10-19T03:39:41;100398.84;;;5.69;60.94
60087;BME280;45960;53.630;55.972;2023-10-19T03:40:43;100415.06;;;5.82;60.75
60087;BME280;45960;53.630;55.972;2023-10-19T03:41:52;100415.94;;;5.82;60.40
60087;BME280;45960;53.630;55.972;2023-10-19T03:42:53;100417.53;;;5.87;60.63
60087;BME280;45960;53.630;55.972;2023-10-19T03:43:55;100419.09;;;5.91;60.36
60087;BME280;45960;53.630;55.972;2023-10-19T03:44:59;100423.56;;;5.90;60.13
60087;BME280;45960;53.630;55.972;2023-10-19T03:46:03;100410.50;;;5.86;60.31
60087;BME280;45960;53.630;55.972;2023-10-19T03:47:20;100411.00;;;5.95;60.01
60087;BME280;45960;53.630;55.972;2023-10-19T03:48:25;100419.59;;;6.00;59.92
60087;BME280;45960;53.630;55.972;2023-10-19T03:49:36;100425.56;;;6.05;59.71
60087;BME280;45960;53.630;55.972;2023-10-19T03:50:40;100426.50;;;6.04;59.59
60087;BME280;45960;53.630;55.972;2023-10-19T03:51:40;100424.91;;;6.00;59.52
60087;BME280;45960;53.630;55.972;2023-10-19T03:52:58;100434.44;;;6.04;59.60
60087;BME280;45960;53.630;55.972;2023-10-19T03:53:59;100428.09;;;6.09;59.55
60087;BME280;45960;53.630;55.972;2023-10-19T03:55:02;100421.03;;;6.08;59.25
60087;BME280;45960;53.630;55.972;2023-10-19T03:56:06;100420.78;;;6.14;59.19
60087;BME280;45960;53.630;55.972;2023-10-19T03:57:13;100426.69;;;6.20;59.31
60087;BME280;45960;53.630;55.972;2023-10-19T03:58:20;100433.34;;;6.29;59.03
60087;BME280;45960;53.630;55.972;2023-10-19T03:59:21;100411.75;;;6.18;58.90
60087;BME280;45960;53.630;55.972;2023-10-19T04:00:22;100428.84;;;6.31;58.75
60087;BME280;45960;53.630;55.972;2023-10-19T04:01:28;100433.03;;;6.37;58.71
60087;BME280;45960;53.630;55.972;2023-10-19T04:02:32;100441.19;;;6.32;58.52
60087;BME280;45960;53.630;55.972;2023-10-19T04:03:38;100437.63;;;6.33;58.38
60087;BME280;45960;53.630;55.972;2023-10-19T04:04:43;100441.03;;;6.35;58.20
60087;BME280;45960;53.630;55.972;2023-10-19T04:05:44;100446.09;;;6.41;58.18
60087;BME280;45960;53.630;55.972;2023-10-19T04:06:50;100449.38;;;6.46;58.02
60087;BME280;45960;53.630;55.972;2023-10-19T04:07:58;100452.81;;;6.48;57.88
60087;BME280;45960;53.630;55.972;2023-10-19T04:09:00;100438.63;;;6.49;57.84
60087;BME280;45960;53.630;55.972;2023-10-19T04:10:02;100457.78;;;6.56;57.69
60087;BME280;45960;53.630;55.972;2023-10-19T04:11:09;100448.97;;;6.56;57.54
60087;BME280;45960;53.630;55.972;2023-10-19T04:12:19;100454.28;;;6.56;57.35
60087;BME280;45960;53.630;55.972;2023-10-19T04:13:23;100454.44;;;6.53;57.43
60087;BME280;45960;53.630;55.972;2023-10-19T04:14:24;100446.38;;;6.54;57.03
60087;BME280;45960;53.630;55.972;2023-10-19T04:15:25;100453.47;;;6.54;57.15
60087;BME280;45960;53.630;55.972;2023-10-19T04:16:27;100459.44;;;6.59;57.19
60087;BME280;45960;53.630;55.972;2023-10-19T04:17:29;100455.72;;;6.63;57.22
60087;BME280;45960;53.630;55.972;2023-10-19T04:18:29;100461.97;;;6.62;56.99
60087;BME280;45960;53.630;55.972;2023-10-19T04:19:31;100457.44;;;6.64;56.92
60087;BME280;45960;53.630;55.972;2023-10-19T04:20:32;100459.88;;;6.68;56.75
60087;BME280;45960;53.630;55.972;2023-10-19T04:21:43;100464.19;;;6.71;56.71
60087;BME280;45960;53.630;55.972;2023-10-19T04:22:53;100461.38;;;6.74;56.78
60087;BME280;45960;53.630;55.972;2023-10-19T04:23:54;100465.91;;;6.72;56.48
60087;BME280;45960;53.630;55.972;2023-10-19T04:24:57;100471.34;;;6.69;56.36
60087;BME280;45960;53.630;55.972;2023-10-19T04:26:00;100473.25;;;6.67;56.57
60087;BME280;45960;53.630;55.972;2023-10-19T04:27:06;100466.03;;;6.69;56.41
60087;BME280;45960;53.630;55.972;2023-10-19T04:28:07;100465.78;;;6.75;56.27
60087;BME280;45960;53.630;55.972;2023-10-19T04:29:09;100467.19;;;6.82;56.18
60087;BME280;45960;53.630;55.972;2023-10-19T04:30:12;100475.81;;;6.87;56.14
60087;BME280;45960;53.630;55.972;2023-10-19T04:31:17;100468.78;;;6.86;56.02
60087;BME280;45960;53.630;55.972;2023-10-19T04:32:19;100479.41;;;6.86;55.79
60087;BME280;45960;53.630;55.972;2023-10-19T04:33:26;100469.00;;;6.82;55.84
60087;BME280;45960;53.630;55.972;2023-10-19T04:34:29;100479.13;;;6.92;55.72
60087;BME280;45960;53.630;55.972;2023-10-19T04:35:30;100479.13;;;6.92;55.74
60087;BME280;45960;53.630;55.972;2023-10-19T04:36:33;100471.44;;;6.86;55.41
60087;BME280;45960;53.630;55.972;2023-10-19T04:37:35;100481.13;;;6.87;55.52
60087;BME280;45960;53.630;55.972;2023-10-19T04:38:36;100483.47;;;6.75;54.98
60087;BME280;45960;53.630;55.972;2023-10-19T04:39:37;100488.16;;;6.69;55.40
60087;BME280;45960;53.630;55.972;2023-10-19T04:40:38;100480.25;;;6.68;55.64
60087;BME280;45960;53.630;55.972;2023-10-19T04:41:40;100479.97;;;6.74;55.67
60087;BME280;45960;53.630;55.972;2023-10-19T04:42:41;100490.31;;;6.80;55.80
60087;BME280;45960;53.630;55.972;2023-10-19T04:43:42;100486.66;;;6.83;55.47
60087;BME280;45960;53.630;55.972;2023-10-19T04:44:47;100491.25;;;6.79;55.54
60087;BME280;45960;53.630;55.972;2023-10-19T04:45:48;100481.13;;;6.68;55.59
60087;BME280;45960;53.630;55.972;2023-10-19T04:46:49;100487.28;;;6.69;55.78
60087;BME280;45960;53.630;55.972;2023-10-19T04:47:51;100484.53;;;6.52;55.53
60087;BME280;45960;53.630;55.972;2023-10-19T04:48:53;100492.72;;;6.47;55.59
60087;BME280;45960;53.630;55.972;2023-10-19T04:49:54;100484.69;;;6.48;55.71
60087;BME280;45960;53.630;55.972;2023-10-19T04:50:56;100497.53;;;6.58;55.94
60087;BME280;45960;53.630;55.972;2023-10-19T04:51:57;100486.00;;;6.59;55.83
60087;BME280;45960;53.630;55.972;2023-10-19T04:52:58;100503.50;;;6.63;55.61
60087;BME280;45960;53.630;55.972;2023-10-19T04:54:00;100463.72;;;6.42;55.41
60087;BME280;45960;53.630;55.972;2023-10-19T04:55:01;100497.47;;;6.59;55.37
60087;BME280;45960;53.630;55.972;2023-10-19T04:56:08;100508.94;;;6.60;55.68
60087;BME280;45960;53.630;55.972;2023-10-19T04:57:09;100492.22;;;6.58;55.60
60087;BME280;45960;53.630;55.972;2023-10-19T04:58:11;100503.50;;;6.63;55.55
60087;BME280;45960;53.630;55.972;2023-10-19T04:59:13;100499.78;;;6.67;55.40
60087;BME280;45960;53.630;55.972;2023-10-19T05:00:14;100496.84;;;6.73;55.45
60087;BME280;45960;53.630;55.972;2023-10-19T05:01:16;100508.28;;;6.75;55.50
60087;BME280;45960;53.630;55.972;2023-10-19T05:02:17;100505.66;;;6.73;55.51
60087;BME280;45960;53.630;55.972;2023-10-19T05:03:18;100510.25;;;6.70;55.38
60087;BME280;45960;53.630;55.972;2023-10-19T05:04:19;100504.09;;;6.69;55.43
60087;BME280;45960;53.630;55.972;2023-10-19T05:05:21;100503.06;;;6.72;55.39
60087;BME280;45960;53.630;55.972;2023-10-19T05:06:22;100494.03;;;6.76;55.42
60087;BME280;45960;53.630;55.972;2023-10-19T05:07:23;100440.91;;;6.38;55.36
60087;BME280;45960;53.630;55.972;2023-10-19T05:08:24;100505.88;;;6.69;55.45
60087;BME280;45960;53.630;55.972;2023-10-19T05:09:25;100506.25;;;6.61;55.48
60087;BME280;45960;53.630;55.972;2023-10-19T05:10:26;100505.25;;;6.64;55.71
60087;BME280;45960;53.630;55.972;2023-10-19T05:11:28;100505.34;;;6.61;55.58
60087;BME280;45960;53.630;55.972;2023-10-19T05:12:29;100512.69;;;6.56;55.54
60087;BME280;45960;53.630;55.972;2023-10-19T05:13:31;100508.22;;;6.56;55.66
60087;BME280;45960;53.630;55.972;2023-10-19T05:14:33;100513.47;;;6.58;55.50
60087;BME280;45960;53.630;55.972;2023-10-19T05:15:34;100508.94;;;6.60;55.68
60087;BME280;45960;53.630;55.972;2023-10-19T05:16:35;100523.31;;;6.56;55.56
60087;BME280;45960;53.630;55.972;2023-10-19T05:17:36;100526.72;;;6.58;55.69
60087;BME280;45960;53.630;55.972;2023-10-19T05:18:37;100520.69;;;6.54;55.78
60087;BME280;45960;53.630;55.972;2023-10-19T05:19:39;100518.13;;;6.53;55.75
60087;BME280;45960;53.630;55.972;2023-10-19T05:20:40;100523.50;;;6.51;55.47
60087;BME280;45960;53.630;55.972;2023-10-19T05:21:41;100533.66;;;6.62;55.55
60087;BME280;45960;53.630;55.972;2023-10-19T05:22:44;100533.41;;;6.66;55.55
60087;BME280;45960;53.630;55.972;2023-10-19T05:23:45;100526.09;;;6.71;55.69
60087;BME280;45960;53.630;55.972;2023-10-19T05:24:46;100543.56;;;6.77;55.54
60087;BME280;45960;53.630;55.972;2023-10-19T05:25:48;100536.25;;;6.82;55.35
60087;BME280;45960;53.630;55.972;2023-10-19T05:26:49;100532.66;;;6.83;55.34
60087;BME280;45960;53.630;55.972;2023-10-19T05:27:50;100539.56;;;6.87;55.16
60087;BME280;45960;53.630;55.972;2023-10-19T05:28:51;100536.81;;;6.89;55.02
60087;BME280;45960;53.630;55.972;2023-10-19T05:29:52;100537.41;;;6.95;55.15
60087;BME280;45960;53.630;55.972;2023-10-19T05:30:53;100548.47;;;6.86;54.70
60087;BME280;45960;53.630;55.972;2023-10-19T05:31:55;100548.72;;;6.80;54.71
60087;BME280;45960;53.630;55.972;2023-10-19T05:32:59;100551.25;;;6.83;54.99
60087;BME280;45960;53.630;55.972;2023-10-19T05:34:02;100540.63;;;6.83;54.88
60087;BME280;45960;53.630;55.972;2023-10-19T05:35:03;100541.28;;;6.88;54.88